Aeroporto :
LOGIN :

Iscrizione | Disclaimer

   EN    FR    IT 

 










Sommario :    VFR   VFR Marginale   IFR   IFR Intensivo   IFR Molto Intensivo
Visibilità : 
Base nubi : 
>= 8 km
>= 3000ft
5 / 8 km
1000 / 3000 ft
1500m / 5 km
500 / 1000 ft
800 / 1500m
200 / 500 ft
< 800m
< 200 ft
Simboli :   Temporali  Nebbia  Neve Forte  Precipitazioni Forti  Vento > 20 kt
SIGMETs :   Varie  Temporali  Ghiacco  Turbolenza  Onda orograficha  Ceneri Vulcaniche






- Altitudine del aeroporto : 39 ft
- Codice IATA : SUF


LICA - Lamezia Terme

ULTIMO METAR :
  • 282350Z AUTO 18003KT 9999 BKN017/// 19/16 Q1015

METARs OBSOLETI :
  • 282320Z AUTO 20004KT 170V230 9999 BKN017/// 19/16 Q1015
  • 282250Z AUTO 24003KT 190V310 9999 BKN017/// 20/16 Q1015
  • 282220Z AUTO VRB02KT 9999 BKN017/// 19/16 Q1015
  • 282150Z AUTO VRB01KT 9999 BKN018/// 19/17 Q1015
  • 282120Z AUTO 27003KT 200V320 9999 BKN019/// 19/17 Q1015
  • 282050Z AUTO 22005KT 9999 FEW020/// 19/17 Q1015
  • 282020Z AUTO 22005KT 9999 BKN021/// 20/17 Q1015
  • 281950Z AUTO 23005KT 9999 BKN019/// 20/17 Q1015
  • 281920Z AUTO 23006KT 9999 BKN020/// 20/17 Q1015

TAF TAF LICA
Valido dal 29 a 00 ore il 30 a 00 ore UTC


282300Z 2900/2924 VRB05KT 9999 SCT030
BECMG 2907/2909 27010KT
BECMG 2918/2920 VRB05KT



MetMap, La meteo Aeronautica in un colpo d'occhio ! - Copyright ORBIFLY Dicembre 2007 - Disclaimer

ORBIFLY MET'MAP TEAM :

Programmazione e sviluppo : Alexandra Zaïnal
Concezione : Baudouin d'Aumeries
Supporto tecnico e logistico : Manuel Goepfert
Aiuto : Marc-Olivier Méhu
Aiuto per la traduzione : Arnaldo La Scala




FONTI E CREDITI :

   NOAA